sensor_id;sensor_type;location;lat;lon;timestamp;pressure;altitude;pressure_sealevel;temperature;humidity
72558;BME280;60583;50.094;8.748;2022-09-09T00:00:23;100021.28;;;17.66;69.55
72558;BME280;60583;50.094;8.748;2022-09-09T00:03:04;100015.84;;;17.61;69.70
72558;BME280;60583;50.094;8.748;2022-09-09T00:07:59;100006.22;;;17.48;70.44
72558;BME280;60583;50.094;8.748;2022-09-09T00:10:33;100012.75;;;17.52;70.56
72558;BME280;60583;50.094;8.748;2022-09-09T00:18:31;100009.97;;;17.47;70.91
72558;BME280;60583;50.094;8.748;2022-09-09T00:21:16;100007.03;;;17.49;71.06
72558;BME280;60583;50.094;8.748;2022-09-09T00:24:08;100012.81;;;17.57;70.61
72558;BME280;60583;50.094;8.748;2022-09-09T00:26:42;100009.25;;;17.52;71.16
72558;BME280;60583;50.094;8.748;2022-09-09T00:31:56;100002.47;;;17.49;71.38
72558;BME280;60583;50.094;8.748;2022-09-09T00:34:26;100001.97;;;17.52;71.07
72558;BME280;60583;50.094;8.748;2022-09-09T00:36:53;99997.09;;;17.49;70.73
72558;BME280;60583;50.094;8.748;2022-09-09T00:39:38;100003.34;;;17.55;71.17
72558;BME280;60583;50.094;8.748;2022-09-09T00:42:18;100004.28;;;17.44;71.18
72558;BME280;60583;50.094;8.748;2022-09-09T00:47:39;100005.66;;;17.24;72.22
72558;BME280;60583;50.094;8.748;2022-09-09T00:55:34;100009.56;;;17.34;72.21
72558;BME280;60583;50.094;8.748;2022-09-09T00:58:01;100017.34;;;17.30;72.40
72558;BME280;60583;50.094;8.748;2022-09-09T01:00:29;100016.66;;;17.18;73.08
72558;BME280;60583;50.094;8.748;2022-09-09T01:08:00;100016.72;;;16.63;75.40
72558;BME280;60583;50.094;8.748;2022-09-09T01:10:49;100014.06;;;16.51;76.15
72558;BME280;60583;50.094;8.748;2022-09-09T01:13:29;100008.03;;;16.44;76.19
72558;BME280;60583;50.094;8.748;2022-09-09T01:15:58;100015.94;;;16.34;77.11
72558;BME280;60583;50.094;8.748;2022-09-09T01:18:27;100012.53;;;16.22;77.43
72558;BME280;60583;50.094;8.748;2022-09-09T01:21:35;100015.72;;;16.19;77.50
72558;BME280;60583;50.094;8.748;2022-09-09T01:24:31;100015.88;;;16.29;77.41
72558;BME280;60583;50.094;8.748;2022-09-09T01:27:01;100012.19;;;16.19;77.56
72558;BME280;60583;50.094;8.748;2022-09-09T01:29:28;100009.44;;;16.30;77.24
72558;BME280;60583;50.094;8.748;2022-09-09T01:34:20;100010.66;;;16.23;77.57
72558;BME280;60583;50.094;8.748;2022-09-09T01:37:12;100001.59;;;16.12;77.76
72558;BME280;60583;50.094;8.748;2022-09-09T01:39:40;100005.50;;;16.05;78.21
72558;BME280;60583;50.094;8.748;2022-09-09T01:42:09;100003.72;;;16.10;78.26
72558;BME280;60583;50.094;8.748;2022-09-09T01:44:36;99998.19;;;16.17;78.27
72558;BME280;60583;50.094;8.748;2022-09-09T01:47:02;100005.19;;;16.18;77.87
72558;BME280;60583;50.094;8.748;2022-09-09T01:49:28;100001.03;;;16.10;77.74
72558;BME280;60583;50.094;8.748;2022-09-09T01:51:55;100006.25;;;16.00;78.74
72558;BME280;60583;50.094;8.748;2022-09-09T01:54:24;100007.28;;;15.99;78.37
72558;BME280;60583;50.094;8.748;2022-09-09T01:59:33;100000.44;;;15.91;79.16
72558;BME280;60583;50.094;8.748;2022-09-09T02:02:09;99993.63;;;16.01;78.65
72558;BME280;60583;50.094;8.748;2022-09-09T02:04:44;99997.19;;;16.06;78.50
72558;BME280;60583;50.094;8.748;2022-09-09T02:07:21;99999.88;;;16.06;78.47
72558;BME280;60583;50.094;8.748;2022-09-09T02:10:01;99988.06;;;16.07;78.32
72558;BME280;60583;50.094;8.748;2022-09-09T02:12:29;100005.34;;;16.11;78.12
72558;BME280;60583;50.094;8.748;2022-09-09T02:15:03;100014.31;;;16.17;78.43
72558;BME280;60583;50.094;8.748;2022-09-09T02:17:36;100008.63;;;16.13;78.23
72558;BME280;60583;50.094;8.748;2022-09-09T02:20:08;100016.09;;;16.11;78.29
72558;BME280;60583;50.094;8.748;2022-09-09T02:22:37;100013.84;;;16.03;78.72
72558;BME280;60583;50.094;8.748;2022-09-09T02:25:07;100004.69;;;15.87;79.30
72558;BME280;60583;50.094;8.748;2022-09-09T02:27:33;100009.59;;;15.90;79.46
72558;BME280;60583;50.094;8.748;2022-09-09T02:30:00;100015.06;;;15.95;78.50
72558;BME280;60583;50.094;8.748;2022-09-09T02:32:29;100019.44;;;16.02;78.59
72558;BME280;60583;50.094;8.748;2022-09-09T02:35:03;100020.53;;;16.01;79.05
72558;BME280;60583;50.094;8.748;2022-09-09T02:37:37;100022.00;;;16.08;79.40
72558;BME280;60583;50.094;8.748;2022-09-09T02:40:04;100024.25;;;16.16;78.70
72558;BME280;60583;50.094;8.748;2022-09-09T02:42:30;100027.38;;;16.25;78.20
72558;BME280;60583;50.094;8.748;2022-09-09T02:44:55;100011.41;;;16.18;78.72
72558;BME280;60583;50.094;8.748;2022-09-09T02:47:34;100011.88;;;16.15;78.19
72558;BME280;60583;50.094;8.748;2022-09-09T02:53:06;100011.72;;;16.22;78.38
72558;BME280;60583;50.094;8.748;2022-09-09T02:55:45;100013.09;;;16.24;78.29
72558;BME280;60583;50.094;8.748;2022-09-09T02:58:15;100019.56;;;16.23;78.18
72558;BME280;60583;50.094;8.748;2022-09-09T03:00:48;100020.94;;;16.26;78.56
72558;BME280;60583;50.094;8.748;2022-09-09T03:03:15;100028.19;;;16.25;78.68
72558;BME280;60583;50.094;8.748;2022-09-09T03:05:42;100025.41;;;16.20;78.66
72558;BME280;60583;50.094;8.748;2022-09-09T03:08:07;100017.25;;;16.15;78.99
72558;BME280;60583;50.094;8.748;2022-09-09T03:10:33;100016.28;;;16.21;78.34
72558;BME280;60583;50.094;8.748;2022-09-09T03:12:58;100029.16;;;16.19;78.53
72558;BME280;60583;50.094;8.748;2022-09-09T03:15:24;100026.00;;;16.22;78.38
72558;BME280;60583;50.094;8.748;2022-09-09T03:17:49;100019.88;;;16.27;78.63
72558;BME280;60583;50.094;8.748;2022-09-09T03:20:15;100010.56;;;16.34;77.74
72558;BME280;60583;50.094;8.748;2022-09-09T03:22:40;100005.75;;;16.36;78.03
72558;BME280;60583;50.094;8.748;2022-09-09T03:25:06;100001.59;;;16.45;78.07
72558;BME280;60583;50.094;8.748;2022-09-09T03:27:32;100004.22;;;16.40;77.97
72558;BME280;60583;50.094;8.748;2022-09-09T03:29:58;100004.13;;;16.19;78.96
72558;BME280;60583;50.094;8.748;2022-09-09T03:32:24;100009.69;;;16.12;78.90
72558;BME280;60583;50.094;8.748;2022-09-09T03:34:51;100009.09;;;16.10;79.17
72558;BME280;60583;50.094;8.748;2022-09-09T03:37:18;100005.34;;;16.11;79.10
72558;BME280;60583;50.094;8.748;2022-09-09T03:39:44;100008.38;;;16.15;78.76
72558;BME280;60583;50.094;8.748;2022-09-09T03:42:12;100007.63;;;16.19;79.06
72558;BME280;60583;50.094;8.748;2022-09-09T03:44:39;100011.88;;;16.15;78.82
72558;BME280;60583;50.094;8.748;2022-09-09T03:47:05;100013.00;;;16.19;79.28
72558;BME280;60583;50.094;8.748;2022-09-09T03:49:31;100009.94;;;16.27;79.00
72558;BME280;60583;50.094;8.748;2022-09-09T03:51:56;100012.34;;;16.29;79.00
72558;BME280;60583;50.094;8.748;2022-09-09T03:54:24;100003.56;;;16.33;78.54
72558;BME280;60583;50.094;8.748;2022-09-09T03:56:49;100002.84;;;16.38;78.19
72558;BME280;60583;50.094;8.748;2022-09-09T03:59:15;99995.41;;;16.45;77.78
72558;BME280;60583;50.094;8.748;2022-09-09T04:01:41;99984.31;;;16.41;78.00
72558;BME280;60583;50.094;8.748;2022-09-09T04:04:06;99988.06;;;16.40;78.22
72558;BME280;60583;50.094;8.748;2022-09-09T04:06:33;99986.50;;;16.44;78.19
72558;BME280;60583;50.094;8.748;2022-09-09T04:08:58;99988.72;;;16.47;77.98
72558;BME280;60583;50.094;8.748;2022-09-09T04:11:23;99992.44;;;16.46;77.94
72558;BME280;60583;50.094;8.748;2022-09-09T04:13:49;99987.41;;;16.50;77.83
72558;BME280;60583;50.094;8.748;2022-09-09T04:16:15;99995.66;;;16.43;78.14
72558;BME280;60583;50.094;8.748;2022-09-09T04:18:40;99990.28;;;16.43;78.06
72558;BME280;60583;50.094;8.748;2022-09-09T04:21:07;99995.41;;;16.28;78.91
72558;BME280;60583;50.094;8.748;2022-09-09T04:23:33;99997.44;;;16.21;79.09
72558;BME280;60583;50.094;8.748;2022-09-09T04:26:01;100004.22;;;16.07;79.47
72558;BME280;60583;50.094;8.748;2022-09-09T04:28:29;99996.41;;;16.06;79.55
72558;BME280;60583;50.094;8.748;2022-09-09T04:30:55;99995.66;;;16.10;79.61
72558;BME280;60583;50.094;8.748;2022-09-09T04:33:23;99994.41;;;16.01;79.98
72558;BME280;60583;50.094;8.748;2022-09-09T04:35:50;100001.91;;;15.99;79.88
72558;BME280;60583;50.094;8.748;2022-09-09T04:38:16;99993.28;;;15.97;79.92
72558;BME280;60583;50.094;8.748;2022-09-09T04:40:50;99997.84;;;15.96;80.27
72558;BME280;60583;50.094;8.748;2022-09-09T04:43:17;99993.09;;;15.87;80.80
72558;BME280;60583;50.094;8.748;2022-09-09T04:45:46;99995.41;;;15.95;80.18
72558;BME280;60583;50.094;8.748;2022-09-09T04:48:12;99993.59;;;15.84;80.90
72558;BME280;60583;50.094;8.748;2022-09-09T04:50:38;99991.53;;;15.74;81.49
72558;BME280;60583;50.094;8.748;2022-09-09T04:53:04;99997.34;;;15.83;81.35
72558;BME280;60583;50.094;8.748;2022-09-09T04:55:30;99996.28;;;15.84;81.06
72558;BME280;60583;50.094;8.748;2022-09-09T04:57:56;100000.44;;;15.91;81.00
72558;BME280;60583;50.094;8.748;2022-09-09T05:00:23;99996.22;;;15.95;80.69
72558;BME280;60583;50.094;8.748;2022-09-09T05:02:48;99998.66;;;15.97;80.21
72558;BME280;60583;50.094;8.748;2022-09-09T05:05:13;99993.28;;;15.97;80.61
72558;BME280;60583;50.094;8.748;2022-09-09T05:07:39;100006.72;;;15.97;80.39
72558;BME280;60583;50.094;8.748;2022-09-09T05:10:04;100010.56;;;16.01;80.44
72558;BME280;60583;50.094;8.748;2022-09-09T05:12:31;100011.84;;;15.98;80.35
72558;BME280;60583;50.094;8.748;2022-09-09T05:14:57;100013.16;;;15.96;80.27
72558;BME280;60583;50.094;8.748;2022-09-09T05:17:22;100024.72;;;15.96;80.48
72558;BME280;60583;50.094;8.748;2022-09-09T05:19:48;100033.38;;;15.98;80.19
72558;BME280;60583;50.094;8.748;2022-09-09T05:22:21;100035.66;;;16.07;80.40
72558;BME280;60583;50.094;8.748;2022-09-09T05:24:48;100032.75;;;16.08;80.11
72558;BME280;60583;50.094;8.748;2022-09-09T05:27:17;100037.06;;;16.09;80.35
72558;BME280;60583;50.094;8.748;2022-09-09T05:29:45;100047.00;;;16.09;79.87
72558;BME280;60583;50.094;8.748;2022-09-09T05:32:10;100050.69;;;16.19;79.78
72558;BME280;60583;50.094;8.748;2022-09-09T05:34:35;100050.59;;;16.14;80.13
72558;BME280;60583;50.094;8.748;2022-09-09T05:37:03;100046.94;;;16.20;79.83
72558;BME280;60583;50.094;8.748;2022-09-09T05:39:29;100042.88;;;16.18;79.31
72558;BME280;60583;50.094;8.748;2022-09-09T05:41:55;100049.91;;;16.35;79.40
72558;BME280;60583;50.094;8.748;2022-09-09T05:44:20;100046.38;;;16.35;79.49
72558;BME280;60583;50.094;8.748;2022-09-09T05:46:46;100052.09;;;16.38;79.53
72558;BME280;60583;50.094;8.748;2022-09-09T05:49:11;100056.69;;;16.54;78.26
72558;BME280;60583;50.094;8.748;2022-09-09T05:51:39;100051.75;;;16.51;78.47
72558;BME280;60583;50.094;8.748;2022-09-09T05:54:05;100058.41;;;16.61;78.19
72558;BME280;60583;50.094;8.748;2022-09-09T05:56:30;100069.06;;;16.72;77.58
72558;BME280;60583;50.094;8.748;2022-09-09T05:58:58;100065.00;;;16.70;77.66
72558;BME280;60583;50.094;8.748;2022-09-09T06:01:27;100073.72;;;16.77;77.68
72558;BME280;60583;50.094;8.748;2022-09-09T06:03:54;100069.97;;;16.78;76.92
72558;BME280;60583;50.094;8.748;2022-09-09T06:06:21;100077.56;;;16.81;77.18
72558;BME280;60583;50.094;8.748;2022-09-09T06:08:49;100072.09;;;16.76;76.83
72558;BME280;60583;50.094;8.748;2022-09-09T06:11:22;100066.78;;;16.81;76.68
72558;BME280;60583;50.094;8.748;2022-09-09T06:13:48;100068.47;;;16.87;76.16
72558;BME280;60583;50.094;8.748;2022-09-09T06:16:18;100068.25;;;16.88;75.93
72558;BME280;60583;50.094;8.748;2022-09-09T06:18:44;100072.63;;;16.94;75.72
72558;BME280;60583;50.094;8.748;2022-09-09T06:21:16;100067.00;;;16.96;75.74
72558;BME280;60583;50.094;8.748;2022-09-09T06:23:42;100071.31;;;16.97;75.97
72558;BME280;60583;50.094;8.748;2022-09-09T06:26:17;100063.84;;;17.20;74.83
72558;BME280;60583;50.094;8.748;2022-09-09T06:28:48;100065.34;;;17.33;74.24
72558;BME280;60583;50.094;8.748;2022-09-09T06:31:16;100057.66;;;17.42;73.77
72558;BME280;60583;50.094;8.748;2022-09-09T06:33:43;100069.00;;;17.65;72.91
72558;BME280;60583;50.094;8.748;2022-09-09T06:36:17;100072.72;;;17.59;72.50
72558;BME280;60583;50.094;8.748;2022-09-09T06:38:43;100055.84;;;17.69;72.57
72558;BME280;60583;50.094;8.748;2022-09-09T06:41:10;100061.72;;;17.66;72.73
72558;BME280;60583;50.094;8.748;2022-09-09T06:43:36;100065.59;;;17.97;71.99
72558;BME280;60583;50.094;8.748;2022-09-09T06:48:33;100066.94;;;18.26;70.32
72558;BME280;60583;50.094;8.748;2022-09-09T06:51:09;100074.06;;;18.37;70.19
72558;BME280;60583;50.094;8.748;2022-09-09T06:53:37;100072.09;;;18.27;70.08
72558;BME280;60583;50.094;8.748;2022-09-09T06:56:23;100074.78;;;18.27;70.37
72558;BME280;60583;50.094;8.748;2022-09-09T06:58:50;100081.41;;;18.15;70.75
72558;BME280;60583;50.094;8.748;2022-09-09T07:01:23;100080.22;;;18.06;70.71
72558;BME280;60583;50.094;8.748;2022-09-09T07:03:51;100076.66;;;18.00;71.44
72558;BME280;60583;50.094;8.748;2022-09-09T07:06:22;100076.97;;;18.04;71.20
72558;BME280;60583;50.094;8.748;2022-09-09T07:08:59;100073.31;;;18.15;70.89
72558;BME280;60583;50.094;8.748;2022-09-09T07:11:33;100071.72;;;18.19;70.74
72558;BME280;60583;50.094;8.748;2022-09-09T07:14:00;100072.38;;;18.31;70.37
72558;BME280;60583;50.094;8.748;2022-09-09T07:16:26;100068.72;;;18.15;70.41
72558;BME280;60583;50.094;8.748;2022-09-09T07:18:57;100071.22;;;18.22;70.39
72558;BME280;60583;50.094;8.748;2022-09-09T07:21:27;100085.06;;;18.04;70.65
72558;BME280;60583;50.094;8.748;2022-09-09T07:23:52;100078.03;;;18.03;70.80
72558;BME280;60583;50.094;8.748;2022-09-09T07:26:20;100081.31;;;18.05;70.99
72558;BME280;60583;50.094;8.748;2022-09-09T07:28:46;100080.19;;;18.01;71.14
72558;BME280;60583;50.094;8.748;2022-09-09T07:31:17;100092.44;;;17.87;71.09
72558;BME280;60583;50.094;8.748;2022-09-09T07:33:44;100102.63;;;17.79;71.12
72558;BME280;60583;50.094;8.748;2022-09-09T07:36:24;100085.31;;;17.75;71.63
72558;BME280;60583;50.094;8.748;2022-09-09T07:38:53;100085.31;;;17.75;71.84
72558;BME280;60583;50.094;8.748;2022-09-09T07:41:22;100080.03;;;17.85;71.55
72558;BME280;60583;50.094;8.748;2022-09-09T07:43:49;100090.56;;;17.87;71.40
72558;BME280;60583;50.094;8.748;2022-09-09T07:46:16;100093.31;;;17.92;71.27
72558;BME280;60583;50.094;8.748;2022-09-09T07:48:46;100096.66;;;17.77;71.84
72558;BME280;60583;50.094;8.748;2022-09-09T07:51:14;100098.09;;;17.85;71.50
72558;BME280;60583;50.094;8.748;2022-09-09T07:53:43;100090.69;;;17.97;71.42
72558;BME280;60583;50.094;8.748;2022-09-09T07:56:11;100098.00;;;18.02;70.88
72558;BME280;60583;50.094;8.748;2022-09-09T07:58:37;100110.13;;;17.99;71.24
72558;BME280;60583;50.094;8.748;2022-09-09T08:01:15;100107.16;;;18.01;71.19
72558;BME280;60583;50.094;8.748;2022-09-09T08:03:43;100113.50;;;18.11;71.02
72558;BME280;60583;50.094;8.748;2022-09-09T08:06:10;100121.63;;;18.16;70.79
72558;BME280;60583;50.094;8.748;2022-09-09T08:08:37;100115.41;;;18.16;71.01
72558;BME280;60583;50.094;8.748;2022-09-09T08:11:14;100120.38;;;18.24;70.73
72558;BME280;60583;50.094;8.748;2022-09-09T08:13:41;100127.34;;;18.20;70.84
72558;BME280;60583;50.094;8.748;2022-09-09T08:16:11;100121.31;;;18.13;70.75
72558;BME280;60583;50.094;8.748;2022-09-09T08:18:37;100130.41;;;18.28;70.43
72558;BME280;60583;50.094;8.748;2022-09-09T08:23:40;100123.75;;;18.41;70.07
72558;BME280;60583;50.094;8.748;2022-09-09T08:28:35;100134.63;;;18.46;69.29
72558;BME280;60583;50.094;8.748;2022-09-09T08:31:10;100131.22;;;18.56;68.82
72558;BME280;60583;50.094;8.748;2022-09-09T08:33:36;100137.00;;;18.69;68.72
72558;BME280;60583;50.094;8.748;2022-09-09T08:36:04;100131.66;;;18.74;68.04
72558;BME280;60583;50.094;8.748;2022-09-09T08:38:30;100139.69;;;18.64;68.71
72558;BME280;60583;50.094;8.748;2022-09-09T08:41:29;100144.66;;;18.77;68.32
72558;BME280;60583;50.094;8.748;2022-09-09T08:43:50;100142.19;;;18.76;68.46
72558;BME280;60583;50.094;8.748;2022-09-09T08:46:32;100130.44;;;18.55;68.61
72558;BME280;60583;50.094;8.748;2022-09-09T08:49:22;100138.84;;;18.64;68.25
72558;BME280;60583;50.094;8.748;2022-09-09T08:51:53;100135.41;;;18.73;67.83
72558;BME280;60583;50.094;8.748;2022-09-09T08:54:21;100140.06;;;18.78;68.02
72558;BME280;60583;50.094;8.748;2022-09-09T08:56:47;100140.97;;;18.93;66.87
72558;BME280;60583;50.094;8.748;2022-09-09T08:59:17;100143.53;;;18.73;67.68
72558;BME280;60583;50.094;8.748;2022-09-09T09:01:52;100145.25;;;18.84;67.46
72558;BME280;60583;50.094;8.748;2022-09-09T09:04:34;100148.56;;;18.60;67.20
72558;BME280;60583;50.094;8.748;2022-09-09T09:07:20;100127.22;;;18.63;67.22
72558;BME280;60583;50.094;8.748;2022-09-09T09:12:24;100112.94;;;18.63;67.42
72558;BME280;60583;50.094;8.748;2022-09-09T09:14:50;100113.41;;;18.91;66.67
72558;BME280;60583;50.094;8.748;2022-09-09T09:17:20;100120.88;;;18.79;66.00
72558;BME280;60583;50.094;8.748;2022-09-09T09:19:48;100111.28;;;18.98;65.80
72558;BME280;60583;50.094;8.748;2022-09-09T09:22:22;100114.72;;;19.26;65.33
72558;BME280;60583;50.094;8.748;2022-09-09T09:25:02;100121.81;;;19.37;64.72
72558;BME280;60583;50.094;8.748;2022-09-09T09:30:23;100113.38;;;19.80;62.38
72558;BME280;60583;50.094;8.748;2022-09-09T09:32:56;100110.13;;;19.83;62.99
72558;BME280;60583;50.094;8.748;2022-09-09T09:35:23;100134.13;;;19.64;65.03
72558;BME280;60583;50.094;8.748;2022-09-09T09:37:49;100122.41;;;19.44;66.18
72558;BME280;60583;50.094;8.748;2022-09-09T09:40:18;100118.28;;;19.36;67.23
72558;BME280;60583;50.094;8.748;2022-09-09T09:42:57;100124.19;;;19.28;68.29
72558;BME280;60583;50.094;8.748;2022-09-09T09:45:35;100122.69;;;19.00;68.14
72558;BME280;60583;50.094;8.748;2022-09-09T09:48:10;100122.13;;;19.03;68.95
72558;BME280;60583;50.094;8.748;2022-09-09T09:50:47;100116.03;;;18.81;72.56
72558;BME280;60583;50.094;8.748;2022-09-09T09:53:22;100145.25;;;18.84;72.09
72558;BME280;60583;50.094;8.748;2022-09-09T09:55:57;100112.97;;;18.41;76.87
72558;BME280;60583;50.094;8.748;2022-09-09T09:58:23;100098.97;;;18.44;74.45
72558;BME280;60583;50.094;8.748;2022-09-09T10:00:51;100115.41;;;18.69;75.86
72558;BME280;60583;50.094;8.748;2022-09-09T10:03:31;100129.03;;;18.26;75.72
72558;BME280;60583;50.094;8.748;2022-09-09T10:05:57;100125.81;;;18.29;76.72
72558;BME280;60583;50.094;8.748;2022-09-09T10:08:25;100118.78;;;18.28;75.50
72558;BME280;60583;50.094;8.748;2022-09-09T10:18:59;100106.31;;;18.22;76.22
72558;BME280;60583;50.094;8.748;2022-09-09T10:32:37;100074.88;;;25.15;53.78
72558;BME280;60583;50.094;8.748;2022-09-09T10:35:30;100091.41;;;24.91;51.51
72558;BME280;60583;50.094;8.748;2022-09-09T10:38:13;100076.41;;;25.62;49.23
72558;BME280;60583;50.094;8.748;2022-09-09T10:46:34;100078.47;;;25.10;50.27
72558;BME280;60583;50.094;8.748;2022-09-09T10:57:03;100082.63;;;20.72;60.99
72558;BME280;60583;50.094;8.748;2022-09-09T10:59:34;100074.50;;;20.21;63.94
72558;BME280;60583;50.094;8.748;2022-09-09T11:04:50;100072.00;;;20.05;69.69
72558;BME280;60583;50.094;8.748;2022-09-09T11:07:36;100075.84;;;20.19;72.08
72558;BME280;60583;50.094;8.748;2022-09-09T11:10:18;100069.59;;;20.13;74.50
72558;BME280;60583;50.094;8.748;2022-09-09T11:12:48;100079.94;;;20.26;74.40
72558;BME280;60583;50.094;8.748;2022-09-09T11:15:20;100066.34;;;21.76;71.05
72558;BME280;60583;50.094;8.748;2022-09-09T11:17:56;100070.84;;;22.01;68.95
72558;BME280;60583;50.094;8.748;2022-09-09T11:20:24;100067.22;;;21.67;69.31
72558;BME280;60583;50.094;8.748;2022-09-09T11:23:03;100063.53;;;21.32;71.83
72558;BME280;60583;50.094;8.748;2022-09-09T11:25:37;100058.31;;;21.56;70.22
72558;BME280;60583;50.094;8.748;2022-09-09T11:28:32;100068.47;;;21.89;66.64
72558;BME280;60583;50.094;8.748;2022-09-09T11:31:27;100061.97;;;21.26;67.83
72558;BME280;60583;50.094;8.748;2022-09-09T11:34:23;100076.94;;;20.88;68.84
72558;BME280;60583;50.094;8.748;2022-09-09T11:37:14;100073.44;;;20.68;69.65
72558;BME280;60583;50.094;8.748;2022-09-09T11:42:22;100070.72;;;20.58;69.83
72558;BME280;60583;50.094;8.748;2022-09-09T11:44:48;100074.50;;;20.72;70.02
72558;BME280;60583;50.094;8.748;2022-09-09T11:49:45;100070.34;;;24.46;59.33
72558;BME280;60583;50.094;8.748;2022-09-09T11:52:13;100073.63;;;24.29;57.32
72558;BME280;60583;50.094;8.748;2022-09-09T11:54:47;100058.34;;;26.68;51.29
72558;BME280;60583;50.094;8.748;2022-09-09T11:57:30;100057.91;;;27.05;51.36
72558;BME280;60583;50.094;8.748;2022-09-09T11:59:56;100057.81;;;25.50;55.82
72558;BME280;60583;50.094;8.748;2022-09-09T12:02:26;100057.97;;;23.79;57.37
72558;BME280;60583;50.094;8.748;2022-09-09T12:05:05;100075.09;;;22.84;58.10
72558;BME280;60583;50.094;8.748;2022-09-09T12:10:18;100070.84;;;23.02;57.13
72558;BME280;60583;50.094;8.748;2022-09-09T12:12:45;100080.06;;;24.52;52.26
72558;BME280;60583;50.094;8.748;2022-09-09T12:17:48;100061.41;;;23.84;53.75
72558;BME280;60583;50.094;8.748;2022-09-09T12:20:31;100063.41;;;22.84;56.31
72558;BME280;60583;50.094;8.748;2022-09-09T12:23:30;100069.59;;;22.27;55.78
72558;BME280;60583;50.094;8.748;2022-09-09T12:31:56;100062.50;;;21.23;58.80
72558;BME280;60583;50.094;8.748;2022-09-09T12:34:38;100052.25;;;20.90;59.34
72558;BME280;60583;50.094;8.748;2022-09-09T12:37:13;100053.34;;;20.99;59.42
72558;BME280;60583;50.094;8.748;2022-09-09T12:40:00;100065.31;;;20.63;61.38
72558;BME280;60583;50.094;8.748;2022-09-09T12:42:27;100070.41;;;19.99;63.50
72558;BME280;60583;50.094;8.748;2022-09-09T12:44:58;100073.84;;;19.84;63.63
72558;BME280;60583;50.094;8.748;2022-09-09T12:47:30;100080.75;;;19.45;65.32
72558;BME280;60583;50.094;8.748;2022-09-09T12:49:58;100081.66;;;19.13;66.95
72558;BME280;60583;50.094;8.748;2022-09-09T12:52:31;100064.41;;;18.78;72.21
72558;BME280;60583;50.094;8.748;2022-09-09T12:55:02;100088.97;;;18.76;72.94
72558;BME280;60583;50.094;8.748;2022-09-09T12:57:34;100087.09;;;18.77;73.36
72558;BME280;60583;50.094;8.748;2022-09-09T13:00:27;100073.56;;;18.72;75.80
72558;BME280;60583;50.094;8.748;2022-09-09T13:02:55;100063.06;;;18.75;75.23
72558;BME280;60583;50.094;8.748;2022-09-09T13:05:25;100069.06;;;18.51;74.90
72558;BME280;60583;50.094;8.748;2022-09-09T13:07:51;100061.88;;;18.66;75.91
72558;BME280;60583;50.094;8.748;2022-09-09T13:10:27;100074.13;;;18.79;75.21
72558;BME280;60583;50.094;8.748;2022-09-09T13:12:54;100069.06;;;18.87;74.79
72558;BME280;60583;50.094;8.748;2022-09-09T13:15:24;100068.31;;;18.97;74.12
72558;BME280;60583;50.094;8.748;2022-09-09T13:17:55;100072.13;;;19.06;74.70
72558;BME280;60583;50.094;8.748;2022-09-09T13:20:21;100074.06;;;19.05;73.68
72558;BME280;60583;50.094;8.748;2022-09-09T13:22:49;100074.03;;;19.00;73.14
72558;BME280;60583;50.094;8.748;2022-09-09T13:25:22;100087.28;;;19.07;73.33
72558;BME280;60583;50.094;8.748;2022-09-09T13:30:20;100083.28;;;19.15;73.17
72558;BME280;60583;50.094;8.748;2022-09-09T13:32:59;100079.44;;;19.00;72.70
72558;BME280;60583;50.094;8.748;2022-09-09T13:35:26;100081.34;;;19.05;72.08
72558;BME280;60583;50.094;8.748;2022-09-09T13:37:52;100073.72;;;18.97;70.51
72558;BME280;60583;50.094;8.748;2022-09-09T13:40:20;100069.38;;;18.96;70.59
72558;BME280;60583;50.094;8.748;2022-09-09T13:42:46;100069.47;;;19.11;70.21
72558;BME280;60583;50.094;8.748;2022-09-09T13:45:18;100068.63;;;19.00;68.68
72558;BME280;60583;50.094;8.748;2022-09-09T13:47:48;100054.88;;;19.12;68.80
72558;BME280;60583;50.094;8.748;2022-09-09T13:50:25;100056.84;;;19.27;68.85
72558;BME280;60583;50.094;8.748;2022-09-09T13:52:56;100052.47;;;19.16;68.18
72558;BME280;60583;50.094;8.748;2022-09-09T13:55:27;100042.81;;;19.30;66.46
72558;BME280;60583;50.094;8.748;2022-09-09T13:57:55;100058.28;;;19.39;66.34
72558;BME280;60583;50.094;8.748;2022-09-09T14:00:21;100056.19;;;19.61;66.39
72558;BME280;60583;50.094;8.748;2022-09-09T14:02:50;100061.31;;;19.53;64.86
72558;BME280;60583;50.094;8.748;2022-09-09T14:05:19;100066.78;;;19.68;66.40
72558;BME280;60583;50.094;8.748;2022-09-09T14:07:44;100074.41;;;19.76;66.28
72558;BME280;60583;50.094;8.748;2022-09-09T14:10:11;100067.34;;;19.70;66.17
72558;BME280;60583;50.094;8.748;2022-09-09T14:12:37;100088.47;;;19.73;65.80
72558;BME280;60583;50.094;8.748;2022-09-09T14:15:04;100086.59;;;19.79;66.07
72558;BME280;60583;50.094;8.748;2022-09-09T14:17:30;100091.41;;;19.71;63.68
72558;BME280;60583;50.094;8.748;2022-09-09T14:19:57;100091.66;;;19.65;64.98
72558;BME280;60583;50.094;8.748;2022-09-09T14:22:22;100088.88;;;19.45;64.77
72558;BME280;60583;50.094;8.748;2022-09-09T14:24:48;100088.53;;;19.36;64.96
72558;BME280;60583;50.094;8.748;2022-09-09T14:27:14;100091.97;;;19.22;65.09
72558;BME280;60583;50.094;8.748;2022-09-09T14:29:40;100078.78;;;19.30;65.16
72558;BME280;60583;50.094;8.748;2022-09-09T14:32:05;100084.69;;;19.22;65.76
72558;BME280;60583;50.094;8.748;2022-09-09T14:34:30;100084.41;;;19.24;65.46
72558;BME280;60583;50.094;8.748;2022-09-09T14:36:57;100070.38;;;19.32;65.68
72558;BME280;60583;50.094;8.748;2022-09-09T14:39:23;100071.28;;;19.42;64.67
72558;BME280;60583;50.094;8.748;2022-09-09T14:41:48;100055.22;;;19.26;64.43
72558;BME280;60583;50.094;8.748;2022-09-09T14:44:14;100059.06;;;19.35;63.30
72558;BME280;60583;50.094;8.748;2022-09-09T14:46:41;100047.94;;;19.31;63.57